sensor_id;sensor_type;location;lat;lon;timestamp;P1;durP1;ratioP1;P2;durP2;ratioP2
50301;SDS011;36550;50.472;19.744;2022-11-12T00:01:35;46.50;;;21.52;;
50301;SDS011;36550;50.472;19.744;2022-11-12T00:04:20;43.90;;;21.42;;
50301;SDS011;36550;50.472;19.744;2022-11-12T00:07:04;41.70;;;20.32;;
50301;SDS011;36550;50.472;19.744;2022-11-12T00:12:39;45.08;;;20.48;;
50301;SDS011;36550;50.472;19.744;2022-11-12T00:15:24;41.18;;;20.72;;
50301;SDS011;36550;50.472;19.744;2022-11-12T00:22:07;47.25;;;21.73;;
50301;SDS011;36550;50.472;19.744;2022-11-12T00:24:52;42.95;;;22.95;;
50301;SDS011;36550;50.472;19.744;2022-11-12T00:27:36;47.23;;;24.90;;
50301;SDS011;36550;50.472;19.744;2022-11-12T00:30:20;46.10;;;25.20;;
50301;SDS011;36550;50.472;19.744;2022-11-12T00:33:04;53.25;;;25.60;;
50301;SDS011;36550;50.472;19.744;2022-11-12T00:35:49;48.87;;;25.50;;
50301;SDS011;36550;50.472;19.744;2022-11-12T00:38:49;48.90;;;26.20;;
50301;SDS011;36550;50.472;19.744;2022-11-12T00:41:33;46.77;;;24.72;;
50301;SDS011;36550;50.472;19.744;2022-11-12T00:44:17;44.35;;;22.65;;
50301;SDS011;36550;50.472;19.744;2022-11-12T00:47:02;36.73;;;20.62;;
50301;SDS011;36550;50.472;19.744;2022-11-12T00:49:50;35.55;;;19.07;;
50301;SDS011;36550;50.472;19.744;2022-11-12T00:52:35;35.63;;;18.75;;
50301;SDS011;36550;50.472;19.744;2022-11-12T00:55:19;38.67;;;21.70;;
50301;SDS011;36550;50.472;19.744;2022-11-12T00:58:03;47.50;;;22.60;;
50301;SDS011;36550;50.472;19.744;2022-11-12T01:00:47;45.17;;;22.87;;
50301;SDS011;36550;50.472;19.744;2022-11-12T01:03:32;46.00;;;22.65;;
50301;SDS011;36550;50.472;19.744;2022-11-12T01:06:20;41.35;;;23.12;;
50301;SDS011;36550;50.472;19.744;2022-11-12T01:11:58;40.43;;;21.23;;
50301;SDS011;36550;50.472;19.744;2022-11-12T01:14:42;39.08;;;19.85;;
50301;SDS011;36550;50.472;19.744;2022-11-12T01:17:27;37.28;;;19.10;;
50301;SDS011;36550;50.472;19.744;2022-11-12T01:20:11;44.77;;;23.18;;
50301;SDS011;36550;50.472;19.744;2022-11-12T01:22:55;39.83;;;22.62;;
50301;SDS011;36550;50.472;19.744;2022-11-12T01:32:12;40.30;;;21.07;;
50301;SDS011;36550;50.472;19.744;2022-11-12T01:34:56;47.23;;;23.42;;
50301;SDS011;36550;50.472;19.744;2022-11-12T01:37:41;43.02;;;23.18;;
50301;SDS011;36550;50.472;19.744;2022-11-12T01:40:25;44.73;;;22.05;;
50301;SDS011;36550;50.472;19.744;2022-11-12T01:43:13;37.17;;;19.60;;
50301;SDS011;36550;50.472;19.744;2022-11-12T01:45:57;42.17;;;20.17;;
50301;SDS011;36550;50.472;19.744;2022-11-12T01:53:17;49.03;;;23.37;;
50301;SDS011;36550;50.472;19.744;2022-11-12T01:55:45;47.27;;;23.73;;
50301;SDS011;36550;50.472;19.744;2022-11-12T01:58:29;54.23;;;26.50;;
50301;SDS011;36550;50.472;19.744;2022-11-12T02:04:00;44.80;;;23.07;;
50301;SDS011;36550;50.472;19.744;2022-11-12T02:06:44;49.80;;;24.95;;
50301;SDS011;36550;50.472;19.744;2022-11-12T02:09:33;52.48;;;25.97;;
50301;SDS011;36550;50.472;19.744;2022-11-12T02:12:18;40.95;;;21.95;;
50301;SDS011;36550;50.472;19.744;2022-11-12T02:15:21;41.00;;;20.23;;
50301;SDS011;36550;50.472;19.744;2022-11-12T02:18:05;36.63;;;19.57;;
50301;SDS011;36550;50.472;19.744;2022-11-12T02:20:54;35.50;;;19.90;;
50301;SDS011;36550;50.472;19.744;2022-11-12T02:23:42;47.38;;;23.45;;
50301;SDS011;36550;50.472;19.744;2022-11-12T02:26:27;40.67;;;22.98;;
50301;SDS011;36550;50.472;19.744;2022-11-12T02:29:16;47.78;;;24.10;;
50301;SDS011;36550;50.472;19.744;2022-11-12T02:32:00;45.73;;;23.67;;
50301;SDS011;36550;50.472;19.744;2022-11-12T02:34:45;45.70;;;24.52;;
50301;SDS011;36550;50.472;19.744;2022-11-12T02:37:29;47.10;;;25.45;;
50301;SDS011;36550;50.472;19.744;2022-11-12T02:40:14;43.63;;;21.70;;
50301;SDS011;36550;50.472;19.744;2022-11-12T02:42:59;44.70;;;21.68;;
50301;SDS011;36550;50.472;19.744;2022-11-12T02:45:43;35.25;;;20.45;;
50301;SDS011;36550;50.472;19.744;2022-11-12T02:48:28;38.65;;;20.57;;
50301;SDS011;36550;50.472;19.744;2022-11-12T02:51:12;48.30;;;23.32;;
50301;SDS011;36550;50.472;19.744;2022-11-12T02:53:57;40.92;;;21.82;;
50301;SDS011;36550;50.472;19.744;2022-11-12T02:56:41;43.95;;;23.02;;
50301;SDS011;36550;50.472;19.744;2022-11-12T03:02:51;47.38;;;25.27;;
50301;SDS011;36550;50.472;19.744;2022-11-12T03:05:44;44.53;;;25.55;;
50301;SDS011;36550;50.472;19.744;2022-11-12T03:11:39;40.85;;;22.80;;
50301;SDS011;36550;50.472;19.744;2022-11-12T03:14:23;39.78;;;21.97;;
50301;SDS011;36550;50.472;19.744;2022-11-12T03:17:08;40.17;;;21.17;;
50301;SDS011;36550;50.472;19.744;2022-11-12T03:19:53;41.23;;;20.27;;
50301;SDS011;36550;50.472;19.744;2022-11-12T03:22:37;41.68;;;23.67;;
50301;SDS011;36550;50.472;19.744;2022-11-12T03:25:21;50.65;;;25.35;;
50301;SDS011;36550;50.472;19.744;2022-11-12T03:28:07;49.25;;;24.23;;
50301;SDS011;36550;50.472;19.744;2022-11-12T03:30:58;49.48;;;25.05;;
50301;SDS011;36550;50.472;19.744;2022-11-12T03:33:43;47.55;;;24.95;;
50301;SDS011;36550;50.472;19.744;2022-11-12T03:36:28;49.20;;;25.70;;
50301;SDS011;36550;50.472;19.744;2022-11-12T03:42:31;53.78;;;25.27;;
50301;SDS011;36550;50.472;19.744;2022-11-12T03:45:15;46.55;;;23.50;;
50301;SDS011;36550;50.472;19.744;2022-11-12T03:48:01;41.80;;;21.80;;
50301;SDS011;36550;50.472;19.744;2022-11-12T03:50:45;42.93;;;22.75;;
50301;SDS011;36550;50.472;19.744;2022-11-12T03:53:30;51.40;;;26.40;;
50301;SDS011;36550;50.472;19.744;2022-11-12T03:56:15;55.35;;;29.23;;
50301;SDS011;36550;50.472;19.744;2022-11-12T03:59:01;52.73;;;27.17;;
50301;SDS011;36550;50.472;19.744;2022-11-12T04:01:46;50.03;;;26.73;;
50301;SDS011;36550;50.472;19.744;2022-11-12T04:04:30;51.20;;;24.90;;
50301;SDS011;36550;50.472;19.744;2022-11-12T04:07:16;52.43;;;25.37;;
50301;SDS011;36550;50.472;19.744;2022-11-12T04:10:18;62.55;;;27.55;;
50301;SDS011;36550;50.472;19.744;2022-11-12T04:13:03;45.52;;;24.20;;
50301;SDS011;36550;50.472;19.744;2022-11-12T04:20:04;64.10;;;31.67;;
50301;SDS011;36550;50.472;19.744;2022-11-12T04:23:09;60.15;;;27.13;;
50301;SDS011;36550;50.472;19.744;2022-11-12T04:25:54;74.15;;;32.15;;
50301;SDS011;36550;50.472;19.744;2022-11-12T04:28:56;62.95;;;30.75;;
50301;SDS011;36550;50.472;19.744;2022-11-12T04:31:59;58.63;;;28.67;;
50301;SDS011;36550;50.472;19.744;2022-11-12T04:34:44;61.25;;;27.65;;
50301;SDS011;36550;50.472;19.744;2022-11-12T04:37:29;58.17;;;28.65;;
50301;SDS011;36550;50.472;19.744;2022-11-12T04:40:21;59.88;;;26.90;;
50301;SDS011;36550;50.472;19.744;2022-11-12T04:43:26;54.93;;;26.55;;
50301;SDS011;36550;50.472;19.744;2022-11-12T04:46:28;50.17;;;24.10;;
50301;SDS011;36550;50.472;19.744;2022-11-12T04:49:12;63.15;;;28.10;;
50301;SDS011;36550;50.472;19.744;2022-11-12T04:51:57;53.75;;;24.12;;
50301;SDS011;36550;50.472;19.744;2022-11-12T04:54:50;43.48;;;21.45;;
50301;SDS011;36550;50.472;19.744;2022-11-12T04:57:35;48.40;;;22.22;;
50301;SDS011;36550;50.472;19.744;2022-11-12T05:00:20;40.53;;;22.33;;
50301;SDS011;36550;50.472;19.744;2022-11-12T05:03:05;42.05;;;21.17;;
50301;SDS011;36550;50.472;19.744;2022-11-12T05:05:49;46.18;;;22.50;;
50301;SDS011;36550;50.472;19.744;2022-11-12T05:08:33;45.05;;;24.32;;
50301;SDS011;36550;50.472;19.744;2022-11-12T05:11:17;43.70;;;24.20;;
50301;SDS011;36550;50.472;19.744;2022-11-12T05:14:02;46.18;;;23.92;;
50301;SDS011;36550;50.472;19.744;2022-11-12T05:16:46;43.83;;;23.40;;
50301;SDS011;36550;50.472;19.744;2022-11-12T05:19:31;48.92;;;25.95;;
50301;SDS011;36550;50.472;19.744;2022-11-12T05:22:16;46.73;;;21.90;;
50301;SDS011;36550;50.472;19.744;2022-11-12T05:25:01;41.55;;;19.95;;
50301;SDS011;36550;50.472;19.744;2022-11-12T05:27:45;42.23;;;20.15;;
50301;SDS011;36550;50.472;19.744;2022-11-12T05:30:29;40.12;;;20.52;;
50301;SDS011;36550;50.472;19.744;2022-11-12T05:33:14;42.48;;;21.60;;
50301;SDS011;36550;50.472;19.744;2022-11-12T05:35:58;41.50;;;22.80;;
50301;SDS011;36550;50.472;19.744;2022-11-12T05:38:44;39.25;;;21.25;;
50301;SDS011;36550;50.472;19.744;2022-11-12T05:41:28;44.67;;;23.43;;
50301;SDS011;36550;50.472;19.744;2022-11-12T05:44:13;46.28;;;23.67;;
50301;SDS011;36550;50.472;19.744;2022-11-12T05:46:57;43.90;;;23.65;;
50301;SDS011;36550;50.472;19.744;2022-11-12T05:53:44;45.23;;;23.40;;
50301;SDS011;36550;50.472;19.744;2022-11-12T05:56:29;43.25;;;22.75;;
50301;SDS011;36550;50.472;19.744;2022-11-12T06:02:41;42.10;;;21.97;;
50301;SDS011;36550;50.472;19.744;2022-11-12T06:05:25;43.33;;;22.27;;
50301;SDS011;36550;50.472;19.744;2022-11-12T06:08:10;51.30;;;25.05;;
50301;SDS011;36550;50.472;19.744;2022-11-12T06:10:54;51.18;;;25.82;;
50301;SDS011;36550;50.472;19.744;2022-11-12T06:13:38;47.70;;;24.25;;
50301;SDS011;36550;50.472;19.744;2022-11-12T06:16:23;47.88;;;25.55;;
50301;SDS011;36550;50.472;19.744;2022-11-12T06:22:28;58.63;;;29.32;;
50301;SDS011;36550;50.472;19.744;2022-11-12T06:25:13;58.78;;;27.70;;
50301;SDS011;36550;50.472;19.744;2022-11-12T06:27:57;62.70;;;27.42;;
50301;SDS011;36550;50.472;19.744;2022-11-12T06:30:42;48.73;;;23.85;;
50301;SDS011;36550;50.472;19.744;2022-11-12T06:36:46;55.17;;;28.32;;
50301;SDS011;36550;50.472;19.744;2022-11-12T06:39:46;51.48;;;25.45;;
50301;SDS011;36550;50.472;19.744;2022-11-12T06:42:31;50.55;;;25.20;;
50301;SDS011;36550;50.472;19.744;2022-11-12T06:45:16;52.75;;;26.82;;
50301;SDS011;36550;50.472;19.744;2022-11-12T06:48:00;56.20;;;27.27;;
50301;SDS011;36550;50.472;19.744;2022-11-12T06:50:45;60.45;;;27.98;;
50301;SDS011;36550;50.472;19.744;2022-11-12T06:53:29;46.92;;;24.27;;
50301;SDS011;36550;50.472;19.744;2022-11-12T06:56:14;45.10;;;23.38;;
50301;SDS011;36550;50.472;19.744;2022-11-12T06:58:58;41.70;;;23.83;;
50301;SDS011;36550;50.472;19.744;2022-11-12T07:01:43;47.98;;;24.57;;
50301;SDS011;36550;50.472;19.744;2022-11-12T07:04:27;46.63;;;24.80;;
50301;SDS011;36550;50.472;19.744;2022-11-12T07:07:11;51.80;;;25.50;;
50301;SDS011;36550;50.472;19.744;2022-11-12T07:09:57;51.35;;;27.15;;
50301;SDS011;36550;50.472;19.744;2022-11-12T07:12:41;54.43;;;26.27;;
50301;SDS011;36550;50.472;19.744;2022-11-12T07:15:26;51.37;;;27.02;;
50301;SDS011;36550;50.472;19.744;2022-11-12T07:22:09;52.93;;;26.10;;
50301;SDS011;36550;50.472;19.744;2022-11-12T07:24:53;50.28;;;25.25;;
50301;SDS011;36550;50.472;19.744;2022-11-12T07:27:37;49.80;;;24.37;;
50301;SDS011;36550;50.472;19.744;2022-11-12T07:30:22;50.25;;;26.07;;
50301;SDS011;36550;50.472;19.744;2022-11-12T07:33:06;58.48;;;29.18;;
50301;SDS011;36550;50.472;19.744;2022-11-12T07:36:01;63.17;;;31.45;;
50301;SDS011;36550;50.472;19.744;2022-11-12T07:41:38;59.77;;;30.80;;
50301;SDS011;36550;50.472;19.744;2022-11-12T07:44:22;68.07;;;32.35;;
50301;SDS011;36550;50.472;19.744;2022-11-12T07:47:06;52.88;;;27.22;;
50301;SDS011;36550;50.472;19.744;2022-11-12T07:50:02;52.62;;;25.60;;
50301;SDS011;36550;50.472;19.744;2022-11-12T07:52:46;41.65;;;23.20;;
50301;SDS011;36550;50.472;19.744;2022-11-12T07:55:31;46.00;;;23.02;;
50301;SDS011;36550;50.472;19.744;2022-11-12T07:58:15;51.37;;;25.40;;
50301;SDS011;36550;50.472;19.744;2022-11-12T08:01:10;56.58;;;27.27;;
50301;SDS011;36550;50.472;19.744;2022-11-12T08:04:02;44.98;;;23.02;;
50301;SDS011;36550;50.472;19.744;2022-11-12T08:06:50;39.05;;;20.15;;
50301;SDS011;36550;50.472;19.744;2022-11-12T08:09:46;43.13;;;20.77;;
50301;SDS011;36550;50.472;19.744;2022-11-12T08:12:31;39.23;;;18.15;;
50301;SDS011;36550;50.472;19.744;2022-11-12T08:15:15;31.70;;;16.27;;
50301;SDS011;36550;50.472;19.744;2022-11-12T08:17:59;32.98;;;16.75;;
50301;SDS011;36550;50.472;19.744;2022-11-12T08:20:44;30.15;;;16.32;;
50301;SDS011;36550;50.472;19.744;2022-11-12T08:23:28;33.88;;;17.40;;
50301;SDS011;36550;50.472;19.744;2022-11-12T08:26:14;32.95;;;17.50;;
50301;SDS011;36550;50.472;19.744;2022-11-12T08:29:02;27.77;;;15.08;;
50301;SDS011;36550;50.472;19.744;2022-11-12T08:31:47;32.15;;;15.50;;
50301;SDS011;36550;50.472;19.744;2022-11-12T08:34:31;30.08;;;16.23;;
50301;SDS011;36550;50.472;19.744;2022-11-12T08:37:16;26.05;;;14.75;;
50301;SDS011;36550;50.472;19.744;2022-11-12T08:40:00;32.03;;;15.10;;
50301;SDS011;36550;50.472;19.744;2022-11-12T08:42:44;25.68;;;12.03;;
50301;SDS011;36550;50.472;19.744;2022-11-12T08:45:30;28.00;;;15.05;;
50301;SDS011;36550;50.472;19.744;2022-11-12T08:51:56;23.98;;;12.98;;
50301;SDS011;36550;50.472;19.744;2022-11-12T08:54:40;25.90;;;12.90;;
50301;SDS011;36550;50.472;19.744;2022-11-12T08:57:37;22.45;;;12.37;;
50301;SDS011;36550;50.472;19.744;2022-11-12T09:00:26;23.60;;;12.05;;
50301;SDS011;36550;50.472;19.744;2022-11-12T09:03:13;23.35;;;12.55;;
50301;SDS011;36550;50.472;19.744;2022-11-12T09:06:03;24.92;;;12.98;;
50301;SDS011;36550;50.472;19.744;2022-11-12T09:08:49;25.80;;;12.40;;
50301;SDS011;36550;50.472;19.744;2022-11-12T09:11:34;27.65;;;13.58;;
50301;SDS011;36550;50.472;19.744;2022-11-12T09:14:19;26.40;;;13.72;;
50301;SDS011;36550;50.472;19.744;2022-11-12T09:17:03;24.27;;;12.25;;
50301;SDS011;36550;50.472;19.744;2022-11-12T09:20:01;24.02;;;11.93;;
50301;SDS011;36550;50.472;19.744;2022-11-12T09:22:46;21.57;;;11.18;;
50301;SDS011;36550;50.472;19.744;2022-11-12T09:25:30;19.15;;;9.43;;
50301;SDS011;36550;50.472;19.744;2022-11-12T09:28:16;20.75;;;10.60;;
50301;SDS011;36550;50.472;19.744;2022-11-12T09:31:01;18.52;;;9.50;;
50301;SDS011;36550;50.472;19.744;2022-11-12T09:33:46;19.37;;;9.35;;
50301;SDS011;36550;50.472;19.744;2022-11-12T09:36:31;21.33;;;11.68;;
50301;SDS011;36550;50.472;19.744;2022-11-12T09:39:22;23.05;;;11.88;;
50301;SDS011;36550;50.472;19.744;2022-11-12T09:42:07;19.40;;;10.93;;
50301;SDS011;36550;50.472;19.744;2022-11-12T09:44:59;18.37;;;9.45;;
50301;SDS011;36550;50.472;19.744;2022-11-12T09:47:58;17.37;;;8.68;;
50301;SDS011;36550;50.472;19.744;2022-11-12T09:50:55;20.65;;;10.40;;
50301;SDS011;36550;50.472;19.744;2022-11-12T09:53:56;19.00;;;9.68;;
50301;SDS011;36550;50.472;19.744;2022-11-12T09:56:42;19.77;;;10.82;;
50301;SDS011;36550;50.472;19.744;2022-11-12T09:59:33;16.10;;;9.63;;
50301;SDS011;36550;50.472;19.744;2022-11-12T10:02:28;20.77;;;9.33;;
50301;SDS011;36550;50.472;19.744;2022-11-12T10:08:19;20.52;;;9.00;;
50301;SDS011;36550;50.472;19.744;2022-11-12T10:18:27;20.02;;;10.90;;
50301;SDS011;36550;50.472;19.744;2022-11-12T10:24:38;25.75;;;12.65;;
50301;SDS011;36550;50.472;19.744;2022-11-12T10:27:26;34.23;;;14.60;;
50301;SDS011;36550;50.472;19.744;2022-11-12T10:30:15;25.40;;;10.98;;
50301;SDS011;36550;50.472;19.744;2022-11-12T10:33:03;18.90;;;9.25;;
50301;SDS011;36550;50.472;19.744;2022-11-12T10:35:47;15.72;;;7.95;;
50301;SDS011;36550;50.472;19.744;2022-11-12T10:38:31;19.45;;;7.87;;
50301;SDS011;36550;50.472;19.744;2022-11-12T10:41:18;24.00;;;11.40;;
50301;SDS011;36550;50.472;19.744;2022-11-12T10:44:13;20.35;;;9.88;;
50301;SDS011;36550;50.472;19.744;2022-11-12T10:53:37;24.43;;;12.07;;
50301;SDS011;36550;50.472;19.744;2022-11-12T10:56:30;25.23;;;12.58;;
50301;SDS011;36550;50.472;19.744;2022-11-12T10:59:18;25.25;;;11.15;;
50301;SDS011;36550;50.472;19.744;2022-11-12T11:02:02;27.82;;;11.70;;
50301;SDS011;36550;50.472;19.744;2022-11-12T11:04:46;17.12;;;9.75;;
50301;SDS011;36550;50.472;19.744;2022-11-12T11:07:30;17.02;;;8.23;;
50301;SDS011;36550;50.472;19.744;2022-11-12T11:10:22;16.85;;;9.55;;
50301;SDS011;36550;50.472;19.744;2022-11-12T11:16:11;21.35;;;10.38;;
50301;SDS011;36550;50.472;19.744;2022-11-12T11:19:04;19.98;;;10.50;;
50301;SDS011;36550;50.472;19.744;2022-11-12T11:24:57;18.73;;;10.28;;
50301;SDS011;36550;50.472;19.744;2022-11-12T11:31:25;16.17;;;9.30;;
50301;SDS011;36550;50.472;19.744;2022-11-12T11:34:40;16.30;;;8.70;;
50301;SDS011;36550;50.472;19.744;2022-11-12T11:37:36;19.45;;;9.20;;
50301;SDS011;36550;50.472;19.744;2022-11-12T11:40:26;18.35;;;9.93;;
50301;SDS011;36550;50.472;19.744;2022-11-12T11:53:16;29.82;;;13.50;;
50301;SDS011;36550;50.472;19.744;2022-11-12T11:56:22;23.80;;;13.62;;
50301;SDS011;36550;50.472;19.744;2022-11-12T12:02:32;21.35;;;10.32;;
50301;SDS011;36550;50.472;19.744;2022-11-12T12:12:03;24.57;;;12.28;;
50301;SDS011;36550;50.472;19.744;2022-11-12T12:18:34;20.50;;;11.10;;
50301;SDS011;36550;50.472;19.744;2022-11-12T12:21:31;19.67;;;11.60;;
50301;SDS011;36550;50.472;19.744;2022-11-12T12:24:39;23.25;;;12.43;;
50301;SDS011;36550;50.472;19.744;2022-11-12T12:27:33;25.25;;;13.70;;
50301;SDS011;36550;50.472;19.744;2022-11-12T12:30:21;23.15;;;12.25;;
50301;SDS011;36550;50.472;19.744;2022-11-12T12:36:26;20.00;;;10.40;;
50301;SDS011;36550;50.472;19.744;2022-11-12T12:42:16;19.30;;;10.32;;
50301;SDS011;36550;50.472;19.744;2022-11-12T12:45:24;21.05;;;9.90;;
50301;SDS011;36550;50.472;19.744;2022-11-12T12:48:26;20.43;;;11.57;;
50301;SDS011;36550;50.472;19.744;2022-11-12T12:51:17;20.25;;;10.98;;
50301;SDS011;36550;50.472;19.744;2022-11-12T12:54:02;22.77;;;11.97;;
50301;SDS011;36550;50.472;19.744;2022-11-12T12:56:47;19.37;;;10.72;;
50301;SDS011;36550;50.472;19.744;2022-11-12T12:59:31;19.35;;;9.78;;
50301;SDS011;36550;50.472;19.744;2022-11-12T13:02:22;14.60;;;8.23;;
50301;SDS011;36550;50.472;19.744;2022-11-12T13:05:24;15.38;;;7.90;;
50301;SDS011;36550;50.472;19.744;2022-11-12T13:08:18;14.70;;;7.87;;
50301;SDS011;36550;50.472;19.744;2022-11-12T13:11:05;15.35;;;7.97;;
50301;SDS011;36550;50.472;19.744;2022-11-12T13:13:50;15.48;;;7.65;;
50301;SDS011;36550;50.472;19.744;2022-11-12T13:22:32;12.73;;;7.22;;
50301;SDS011;36550;50.472;19.744;2022-11-12T13:25:27;14.58;;;6.20;;
50301;SDS011;36550;50.472;19.744;2022-11-12T13:28:14;20.85;;;11.10;;
50301;SDS011;36550;50.472;19.744;2022-11-12T13:30:59;21.12;;;9.63;;
50301;SDS011;36550;50.472;19.744;2022-11-12T13:33:45;17.02;;;9.05;;
50301;SDS011;36550;50.472;19.744;2022-11-12T13:36:30;16.85;;;9.68;;
50301;SDS011;36550;50.472;19.744;2022-11-12T13:39:17;21.85;;;10.35;;
50301;SDS011;36550;50.472;19.744;2022-11-12T13:42:16;17.60;;;10.15;;
50301;SDS011;36550;50.472;19.744;2022-11-12T13:45:20;20.43;;;10.53;;
50301;SDS011;36550;50.472;19.744;2022-11-12T13:48:12;22.58;;;10.55;;
50301;SDS011;36550;50.472;19.744;2022-11-12T13:51:03;19.07;;;9.43;;
50301;SDS011;36550;50.472;19.744;2022-11-12T13:53:52;16.80;;;9.18;;
50301;SDS011;36550;50.472;19.744;2022-11-12T13:56:36;17.65;;;10.58;;
50301;SDS011;36550;50.472;19.744;2022-11-12T14:03:25;23.57;;;11.88;;
50301;SDS011;36550;50.472;19.744;2022-11-12T14:23:14;54.27;;;23.10;;
50301;SDS011;36550;50.472;19.744;2022-11-12T14:26:03;35.25;;;16.35;;
50301;SDS011;36550;50.472;19.744;2022-11-12T14:28:50;149.82;;;56.42;;
50301;SDS011;36550;50.472;19.744;2022-11-12T14:31:39;38.10;;;18.85;;
50301;SDS011;36550;50.472;19.744;2022-11-12T14:34:27;26.37;;;14.47;;
50301;SDS011;36550;50.472;19.744;2022-11-12T14:37:34;33.02;;;15.00;;
50301;SDS011;36550;50.472;19.744;2022-11-12T14:40:21;30.12;;;13.72;;
50301;SDS011;36550;50.472;19.744;2022-11-12T14:43:42;31.25;;;11.28;;
50301;SDS011;36550;50.472;19.744;2022-11-12T14:49:39;21.17;;;11.97;;
50301;SDS011;36550;50.472;19.744;2022-11-12T14:52:27;28.38;;;14.35;;
50301;SDS011;36550;50.472;19.744;2022-11-12T14:55:16;24.70;;;13.70;;
50301;SDS011;36550;50.472;19.744;2022-11-12T14:58:04;26.15;;;12.40;;
50301;SDS011;36550;50.472;19.744;2022-11-12T15:00:50;22.22;;;12.70;;
50301;SDS011;36550;50.472;19.744;2022-11-12T15:03:35;23.47;;;12.35;;
50301;SDS011;36550;50.472;19.744;2022-11-12T15:06:26;24.67;;;13.03;;
50301;SDS011;36550;50.472;19.744;2022-11-12T15:09:17;24.00;;;11.05;;
50301;SDS011;36550;50.472;19.744;2022-11-12T15:12:05;20.68;;;11.25;;
50301;SDS011;36550;50.472;19.744;2022-11-12T15:15:02;25.25;;;12.40;;
50301;SDS011;36550;50.472;19.744;2022-11-12T15:21:03;97.42;;;43.20;;
50301;SDS011;36550;50.472;19.744;2022-11-12T15:24:03;51.77;;;25.32;;
50301;SDS011;36550;50.472;19.744;2022-11-12T15:26:56;68.83;;;31.25;;
50301;SDS011;36550;50.472;19.744;2022-11-12T15:29:43;75.20;;;34.43;;
50301;SDS011;36550;50.472;19.744;2022-11-12T15:32:32;83.55;;;45.35;;
50301;SDS011;36550;50.472;19.744;2022-11-12T15:35:30;86.15;;;40.10;;
50301;SDS011;36550;50.472;19.744;2022-11-12T15:38:20;71.90;;;29.92;;
50301;SDS011;36550;50.472;19.744;2022-11-12T15:41:32;72.60;;;30.60;;
50301;SDS011;36550;50.472;19.744;2022-11-12T15:44:12;86.08;;;36.70;;
50301;SDS011;36550;50.472;19.744;2022-11-12T15:46:56;55.35;;;28.10;;
50301;SDS011;36550;50.472;19.744;2022-11-12T15:53:40;72.33;;;34.90;;
50301;SDS011;36550;50.472;19.744;2022-11-12T15:56:24;80.83;;;38.58;;
50301;SDS011;36550;50.472;19.744;2022-11-12T16:02:15;81.22;;;37.83;;
50301;SDS011;36550;50.472;19.744;2022-11-12T16:04:59;77.85;;;35.90;;
50301;SDS011;36550;50.472;19.744;2022-11-12T16:10:42;60.15;;;31.33;;
50301;SDS011;36550;50.472;19.744;2022-11-12T16:13:31;53.87;;;25.40;;
50301;SDS011;36550;50.472;19.744;2022-11-12T16:16:17;87.97;;;38.78;;
50301;SDS011;36550;50.472;19.744;2022-11-12T16:19:01;89.90;;;40.12;;
50301;SDS011;36550;50.472;19.744;2022-11-12T16:21:45;175.55;;;62.80;;
50301;SDS011;36550;50.472;19.744;2022-11-12T16:24:30;166.77;;;54.35;;
50301;SDS011;36550;50.472;19.744;2022-11-12T16:27:14;130.15;;;45.80;;
50301;SDS011;36550;50.472;19.744;2022-11-12T16:29:59;94.13;;;38.45;;
50301;SDS011;36550;50.472;19.744;2022-11-12T16:32:43;80.67;;;37.33;;
50301;SDS011;36550;50.472;19.744;2022-11-12T16:38:16;103.97;;;39.83;;
50301;SDS011;36550;50.472;19.744;2022-11-12T16:41:00;110.60;;;44.18;;
50301;SDS011;36550;50.472;19.744;2022-11-12T16:43:45;244.18;;;79.95;;
50301;SDS011;36550;50.472;19.744;2022-11-12T16:46:29;523.50;;;185.10;;
50301;SDS011;36550;50.472;19.744;2022-11-12T16:49:18;449.27;;;165.28;;
50301;SDS011;36550;50.472;19.744;2022-11-12T16:52:03;313.23;;;112.30;;
50301;SDS011;36550;50.472;19.744;2022-11-12T16:54:48;199.65;;;76.05;;
50301;SDS011;36550;50.472;19.744;2022-11-12T16:57:33;152.00;;;61.18;;
50301;SDS011;36550;50.472;19.744;2022-11-12T17:00:17;155.55;;;65.55;;
50301;SDS011;36550;50.472;19.744;2022-11-12T17:03:02;200.47;;;86.67;;
50301;SDS011;36550;50.472;19.744;2022-11-12T17:05:50;200.10;;;89.87;;
50301;SDS011;36550;50.472;19.744;2022-11-12T17:12:33;301.00;;;133.23;;
50301;SDS011;36550;50.472;19.744;2022-11-12T17:15:18;350.38;;;140.00;;
50301;SDS011;36550;50.472;19.744;2022-11-12T17:21:10;160.93;;;70.30;;
50301;SDS011;36550;50.472;19.744;2022-11-12T17:24:00;147.98;;;62.23;;
50301;SDS011;36550;50.472;19.744;2022-11-12T17:26:44;135.60;;;58.48;;
50301;SDS011;36550;50.472;19.744;2022-11-12T17:29:38;148.68;;;65.80;;
50301;SDS011;36550;50.472;19.744;2022-11-12T17:32:22;134.22;;;58.10;;
50301;SDS011;36550;50.472;19.744;2022-11-12T17:35:07;186.75;;;78.33;;
50301;SDS011;36550;50.472;19.744;2022-11-12T17:40:58;175.55;;;88.65;;
50301;SDS011;36550;50.472;19.744;2022-11-12T17:47:40;78.73;;;38.43;;
50301;SDS011;36550;50.472;19.744;2022-11-12T17:50:25;53.28;;;26.00;;
50301;SDS011;36550;50.472;19.744;2022-11-12T17:53:09;60.03;;;29.80;;
50301;SDS011;36550;50.472;19.744;2022-11-12T17:55:57;251.58;;;120.72;;
50301;SDS011;36550;50.472;19.744;2022-11-12T18:01:49;62.15;;;31.00;;
50301;SDS011;36550;50.472;19.744;2022-11-12T18:04:33;51.18;;;25.17;;
50301;SDS011;36550;50.472;19.744;2022-11-12T18:07:18;57.58;;;27.62;;
50301;SDS011;36550;50.472;19.744;2022-11-12T18:10:05;50.98;;;23.60;;
50301;SDS011;36550;50.472;19.744;2022-11-12T18:12:50;49.88;;;23.90;;
50301;SDS011;36550;50.472;19.744;2022-11-12T18:15:35;42.17;;;20.00;;
50301;SDS011;36550;50.472;19.744;2022-11-12T18:21:31;42.80;;;20.82;;
50301;SDS011;36550;50.472;19.744;2022-11-12T18:24:16;53.08;;;23.65;;
50301;SDS011;36550;50.472;19.744;2022-11-12T18:27:00;48.60;;;23.80;;
50301;SDS011;36550;50.472;19.744;2022-11-12T18:33:18;58.23;;;27.98;;
50301;SDS011;36550;50.472;19.744;2022-11-12T18:36:07;63.23;;;30.88;;
50301;SDS011;36550;50.472;19.744;2022-11-12T18:38:52;63.33;;;31.35;;
50301;SDS011;36550;50.472;19.744;2022-11-12T18:41:37;66.07;;;31.60;;
50301;SDS011;36550;50.472;19.744;2022-11-12T18:44:21;60.88;;;28.55;;
50301;SDS011;36550;50.472;19.744;2022-11-12T18:47:06;48.45;;;22.75;;
50301;SDS011;36550;50.472;19.744;2022-11-12T18:53:14;84.70;;;42.38;;
50301;SDS011;36550;50.472;19.744;2022-11-12T18:56:00;77.72;;;38.00;;
50301;SDS011;36550;50.472;19.744;2022-11-12T18:58:57;68.85;;;33.75;;
50301;SDS011;36550;50.472;19.744;2022-11-12T19:01:41;86.55;;;41.90;;
50301;SDS011;36550;50.472;19.744;2022-11-12T19:04:25;63.23;;;30.75;;
50301;SDS011;36550;50.472;19.744;2022-11-12T19:07:10;54.42;;;28.32;;
50301;SDS011;36550;50.472;19.744;2022-11-12T19:09:54;37.88;;;19.65;;
50301;SDS011;36550;50.472;19.744;2022-11-12T19:12:38;38.78;;;20.15;;
50301;SDS011;36550;50.472;19.744;2022-11-12T19:15:23;35.73;;;17.05;;
50301;SDS011;36550;50.472;19.744;2022-11-12T19:21:08;36.75;;;17.77;;
50301;SDS011;36550;50.472;19.744;2022-11-12T19:23:56;33.15;;;17.30;;